Time;durP1;ratioP1;P1;durP2;ratioP2;P2;SDS_P1;SDS_P2;PMS_P1;PMS_P2;Temp;Humidity;BMP_temperature;BMP_pressure;BME280_temperature;BME280_humidity;BME280_pressure;Samples;Min_cycle;Max_cycle;Signal;HPM_P1;HPM_P2
2022/04/16 00:00:59;;;;;;;6.10;2.55;;;;;;;7.73;70.37;97478.78;2084716;28;20223;-64
2022/04/16 00:02:02;;;;;;;4.80;1.60;;;;;;;7.77;70.29;97476.91;2088151;28;20199;-64
2022/04/16 00:03:04;;;;;;;2.40;1.42;;;;;;;7.77;70.52;97483.88;2088352;28;20675;-64
2022/04/16 00:04:08;;;;;;;3.47;2.00;;;;;;;7.81;70.28;97485.44;2085292;28;20201;-64
2022/04/16 00:05:09;;;;;;;2.53;1.75;;;;;;;7.72;70.59;97487.53;2085822;28;20195;-64
2022/04/16 00:06:11;;;;;;;4.75;1.73;;;;;;;7.71;71.14;97485.00;2086065;28;20212;-64
2022/04/16 00:07:13;;;;;;;3.25;1.92;;;;;;;7.91;70.38;97491.94;2086791;28;20207;-65
2022/04/16 00:08:15;;;;;;;2.40;1.85;;;;;;;8.05;69.55;97491.31;2079893;28;20204;-65
2022/04/16 00:09:17;;;;;;;3.38;1.90;;;;;;;7.86;69.54;97488.66;2080253;28;20204;-64
2022/04/16 00:10:19;;;;;;;2.70;2.00;;;;;;;7.75;70.27;97488.31;2086694;28;20207;-64
2022/04/16 00:11:20;;;;;;;2.90;1.80;;;;;;;7.69;70.29;97481.59;2086739;28;20208;-64
2022/04/16 00:12:22;;;;;;;3.58;1.80;;;;;;;7.94;69.70;97491.81;2080130;28;20271;-64
2022/04/16 00:13:23;;;;;;;3.70;2.22;;;;;;;7.87;69.91;97483.41;2080405;28;20212;-64
2022/04/16 00:14:25;;;;;;;3.20;1.90;;;;;;;7.87;69.91;97493.00;2086473;28;20197;-64
2022/04/16 00:15:27;;;;;;;4.20;2.10;;;;;;;7.80;70.12;97474.16;2082287;28;20196;-64
2022/04/16 00:16:28;;;;;;;4.65;1.85;;;;;;;7.93;69.98;97492.72;2082585;28;20235;-63
2022/04/16 00:17:30;;;;;;;2.58;1.80;;;;;;;7.79;69.97;97469.00;2084332;28;20223;-64
2022/04/16 00:18:31;;;;;;;2.90;1.95;;;;;;;7.86;69.92;97480.84;2085816;28;20244;-64
2022/04/16 00:19:34;;;;;;;8.05;2.15;;;;;;;7.85;70.07;97481.78;2085148;28;20703;-63
2022/04/16 00:20:35;;;;;;;3.58;1.80;;;;;;;7.80;70.35;97483.72;2084945;28;20217;-64
2022/04/16 00:21:39;;;;;;;2.85;1.80;;;;;;;7.79;70.33;97476.84;2084077;28;20209;-64
2022/04/16 00:22:41;;;;;;;4.47;1.60;;;;;;;7.82;70.12;97482.78;2086415;28;20192;-64
2022/04/16 00:23:43;;;;;;;3.67;1.95;;;;;;;7.81;69.95;97480.22;2085388;28;20198;-64
2022/04/16 00:24:50;;;;;;;2.40;1.60;;;;;;;7.79;70.39;97482.06;2078175;28;20193;-63
2022/04/16 00:25:55;;;;;;;4.63;1.75;;;;;;;7.68;70.18;97479.91;2079710;28;20223;-64
2022/04/16 00:26:56;;;;;;;6.57;1.80;;;;;;;7.80;70.11;97483.72;2086966;28;20193;-64
2022/04/16 00:27:58;;;;;;;2.75;1.90;;;;;;;7.79;69.97;97489.88;2084792;28;20195;-64
2022/04/16 00:28:59;;;;;;;2.70;1.60;;;;;;;7.69;69.87;97465.97;2086057;28;20197;-64
2022/04/16 00:30:02;;;;;;;2.85;1.75;;;;;;;7.79;70.04;97482.06;2083775;28;20290;-64
2022/04/16 00:31:03;;;;;;;1.95;1.50;;;;;;;7.77;70.16;97478.66;2085209;28;20217;-65
2022/04/16 00:32:06;;;;;;;5.72;2.50;;;;;;;7.85;70.07;97489.59;2085697;28;20827;-64
2022/04/16 00:33:08;;;;;;;2.90;1.70;;;;;;;7.75;69.74;97470.91;2086520;28;20211;-64
2022/04/16 00:34:11;;;;;;;2.55;1.33;;;;;;;7.64;70.14;97484.38;2084242;28;20205;-64
2022/04/16 00:35:13;;;;;;;2.25;1.65;;;;;;;7.59;70.20;97478.53;2085581;28;20193;-64
2022/04/16 00:36:15;;;;;;;2.70;1.70;;;;;;;7.63;70.37;97484.47;2080215;28;20193;-64
2022/04/16 00:37:17;;;;;;;2.45;1.75;;;;;;;7.76;69.88;97490.00;2080102;28;20193;-65
2022/04/16 00:38:19;;;;;;;3.90;1.67;;;;;;;7.86;69.20;97483.47;2082960;28;20197;-64
2022/04/16 00:39:21;;;;;;;4.45;2.00;;;;;;;7.81;69.33;97483.66;2084748;28;20192;-65
2022/04/16 00:40:22;;;;;;;4.82;1.48;;;;;;;7.75;69.76;97490.94;2086214;28;20196;-64
2022/04/16 00:41:24;;;;;;;2.55;1.90;;;;;;;7.56;70.19;97485.63;2076924;28;20207;-64
2022/04/16 00:42:31;;;;;;;3.05;1.83;;;;;;;7.27;70.63;97459.03;2078158;28;20198;-64
2022/04/16 00:43:33;;;;;;;7.50;2.38;;;;;;;7.30;70.96;97496.25;2085359;28;20200;-64
2022/04/16 00:44:34;;;;;;;5.43;1.60;;;;;;;7.22;71.26;97482.69;2077411;28;20658;-65
2022/04/16 00:45:37;;;;;;;4.15;2.08;;;;;;;7.20;71.55;97484.50;2075868;28;20224;-64
2022/04/16 00:46:39;;;;;;;5.22;1.67;;;;;;;7.29;71.21;97494.56;2085478;28;20672;-64
2022/04/16 00:47:41;;;;;;;4.07;2.17;;;;;;;7.29;70.97;97494.56;2084917;28;20243;-63
2022/04/16 00:48:43;;;;;;;2.65;1.65;;;;;;;7.24;71.67;97485.25;2084143;28;20200;-63
2022/04/16 00:49:44;;;;;;;3.13;1.90;;;;;;;7.39;71.25;97491.56;2086761;28;20201;-64
2022/04/16 00:50:48;;;;;;;3.17;1.63;;;;;;;7.12;71.08;97444.91;2086485;28;20299;-64
2022/04/16 00:51:51;;;;;;;3.05;1.95;;;;;;;7.39;70.81;97487.22;2084036;28;20193;-64
2022/04/16 00:52:53;;;;;;;2.80;1.92;;;;;;;7.47;70.15;97486.91;2078881;28;20200;-64
2022/04/16 00:53:55;;;;;;;3.13;1.98;;;;;;;7.45;70.19;97489.56;2080315;28;20588;-63
2022/04/16 00:54:57;;;;;;;3.10;2.08;;;;;;;7.37;70.16;97480.34;2084130;28;20200;-64
2022/04/16 00:55:59;;;;;;;2.85;1.85;;;;;;;7.42;69.98;97487.06;2081584;28;20228;-63
2022/04/16 00:57:01;;;;;;;3.05;1.95;;;;;;;7.33;70.19;97480.50;2081643;28;20193;-64
2022/04/16 00:58:03;;;;;;;3.38;1.80;;;;;;;7.40;69.94;97480.22;2085526;28;20188;-64
2022/04/16 00:59:05;;;;;;;2.97;1.90;;;;;;;7.38;70.05;97482.06;2083969;28;20204;-64
2022/04/16 01:00:09;;;;;;;4.15;1.90;;;;;;;7.28;70.55;97481.59;2084885;28;20246;-64
2022/04/16 01:01:10;;;;;;;2.75;1.92;;;;;;;7.28;70.63;97471.16;2081493;28;20306;-65
2022/04/16 01:02:12;;;;;;;1.73;1.63;;;;;;;7.38;70.30;97484.66;2085488;28;20595;-63
2022/04/16 01:03:15;;;;;;;1.85;1.58;;;;;;;7.37;70.46;97488.16;2084816;28;20326;-64
2022/04/16 01:04:17;;;;;;;1.90;1.55;;;;;;;7.32;70.77;97477.94;2075525;28;20208;-63
2022/04/16 01:05:19;;;;;;;1.90;1.63;;;;;;;7.30;70.71;97483.22;2075182;28;20197;-64
2022/04/16 01:06:21;;;;;;;2.45;1.85;;;;;;;7.30;70.41;97483.22;2078988;28;20259;-64
2022/04/16 01:07:24;;;;;;;2.42;1.88;;;;;;;7.00;71.54;97482.72;2079972;28;20201;-64
2022/04/16 01:08:25;;;;;;;2.97;2.13;;;;;;;7.10;71.12;97475.38;2085559;28;20193;-64
2022/04/16 01:09:27;;;;;;;4.18;1.90;;;;;;;7.01;71.39;97473.16;2086590;28;20192;-64
2022/04/16 01:10:31;;;;;;;1.75;1.55;;;;;;;7.18;70.97;97486.34;2084310;28;20228;-64
2022/04/16 01:11:33;;;;;;;2.35;1.60;;;;;;;7.18;71.02;97488.09;2087098;28;20587;-64
2022/04/16 01:12:34;;;;;;;2.90;1.92;;;;;;;7.11;71.33;97477.06;2088246;28;20199;-64
2022/04/16 01:13:36;;;;;;;3.47;1.50;;;;;;;7.10;71.51;97483.19;2083142;28;20687;-63
2022/04/16 01:14:38;;;;;;;5.95;1.70;;;;;;;7.09;71.54;97484.94;2084994;28;20203;-64
2022/04/16 01:15:41;;;;;;;3.33;1.83;;;;;;;6.88;72.13;97454.56;2081510;28;20231;-63
2022/04/16 01:16:42;;;;;;;2.80;1.77;;;;;;;7.01;72.04;97480.97;2083675;28;20207;-64
2022/04/16 01:17:44;;;;;;;2.00;1.45;;;;;;;6.95;71.91;97473.41;2086098;28;20197;-64
2022/04/16 01:18:47;;;;;;;2.75;1.73;;;;;;;7.02;71.84;97480.91;2084376;28;20200;-64
2022/04/16 01:19:48;;;;;;;7.65;1.70;;;;;;;6.96;72.11;97478.56;2079780;28;20197;-64
2022/04/16 01:20:49;;;;;;;2.67;1.63;;;;;;;6.93;72.07;97479.50;2078183;28;20212;-64
2022/04/16 01:21:51;;;;;;;1.98;1.50;;;;;;;6.98;71.62;97479.34;2085012;28;20196;-64
2022/04/16 01:22:54;;;;;;;2.20;1.65;;;;;;;6.75;71.73;97461.19;2084530;28;20199;-64
2022/04/16 01:23:56;;;;;;;1.70;1.60;;;;;;;6.78;72.36;97482.72;2083489;28;20231;-64
2022/04/16 01:25:00;;;;;;;4.53;1.98;;;;;;;6.75;72.51;97484.63;2083571;28;20651;-64
2022/04/16 01:26:02;;;;;;;2.75;1.67;;;;;;;6.77;72.21;97477.59;2083356;28;20224;-64
2022/04/16 01:27:04;;;;;;;1.80;1.48;;;;;;;6.69;72.60;97467.47;2085671;28;20208;-64
2022/04/16 01:28:06;;;;;;;5.80;1.80;;;;;;;6.73;72.61;97464.69;2086329;28;20194;-63
2022/04/16 01:29:09;;;;;;;2.70;1.73;;;;;;;6.99;71.91;97475.81;2085910;28;20275;-64
2022/04/16 01:30:11;;;;;;;1.70;1.60;;;;;;;6.87;72.07;97464.13;2082082;28;20204;-64
2022/04/16 01:31:13;;;;;;;3.53;1.98;;;;;;;6.89;72.33;97477.09;2084996;28;20197;-64
2022/04/16 01:32:14;;;;;;;3.45;1.70;;;;;;;6.77;72.65;97465.41;2077436;28;20995;-64
2022/04/16 01:33:17;;;;;;;1.83;1.50;;;;;;;6.77;72.42;97475.81;2075509;28;20772;-64
2022/04/16 01:34:20;;;;;;;4.50;1.85;;;;;;;6.77;72.42;97475.81;2078612;28;20201;-65
2022/04/16 01:35:21;;;;;;;4.72;2.28;;;;;;;6.66;72.41;97462.38;2079155;28;20204;-65
2022/04/16 01:36:24;;;;;;;2.58;1.52;;;;;;;6.64;73.11;97477.22;2086167;28;20206;-65
2022/04/16 01:37:33;;;;;;;2.75;1.90;;;;;;;6.74;72.62;97478.53;2083966;28;20216;-66
2022/04/16 01:38:35;;;;;;;3.15;2.03;;;;;;;6.45;72.75;97464.94;2087811;28;20196;-65
2022/04/16 01:39:36;;;;;;;2.40;1.60;;;;;;;6.61;72.84;97488.59;2087925;28;20207;-65
2022/04/16 01:40:38;;;;;;;3.45;1.85;;;;;;;6.70;72.42;97484.78;2084093;28;20224;-65
2022/04/16 01:41:40;;;;;;;3.63;1.90;;;;;;;6.79;72.45;97478.38;2078540;28;20322;-65
2022/04/16 01:42:46;;;;;;;3.30;1.80;;;;;;;6.84;72.11;97481.63;2079705;28;20197;-65
2022/04/16 01:43:47;;;;;;;3.28;2.20;;;;;;;6.81;72.32;97466.97;2085458;28;20204;-65
2022/04/16 01:44:51;;;;;;;1.88;1.50;;;;;;;6.80;72.35;97473.13;2084480;28;20197;-65
2022/04/16 01:45:52;;;;;;;2.35;1.90;;;;;;;6.47;72.67;97452.69;2084246;28;20217;-65
2022/04/16 01:46:54;;;;;;;4.90;1.60;;;;;;;6.73;72.58;97469.88;2084665;28;20197;-65
2022/04/16 01:47:59;;;;;;;3.47;2.20;;;;;;;6.84;71.30;97456.47;2083518;28;20204;-65
2022/04/16 01:49:01;;;;;;;2.47;1.80;;;;;;;6.91;71.72;97475.28;2079271;28;20205;-65
2022/04/16 01:50:05;;;;;;;2.83;1.88;;;;;;;6.72;71.83;97456.94;2079746;28;20639;-65
2022/04/16 01:51:07;;;;;;;2.20;1.50;;;;;;;6.77;72.11;97481.03;2083841;28;20224;-64
2022/04/16 01:52:09;;;;;;;2.63;1.83;;;;;;;6.77;72.32;97481.03;2085185;28;20200;-65
2022/04/16 01:53:11;;;;;;;2.80;2.20;;;;;;;6.79;72.31;97480.97;2084773;28;20197;-65
2022/04/16 01:54:12;;;;;;;2.40;1.90;;;;;;;6.77;72.33;97475.81;2086620;28;20196;-66
2022/04/16 01:55:14;;;;;;;2.65;1.88;;;;;;;6.71;72.61;97486.50;2086485;28;20201;-65
2022/04/16 01:56:16;;;;;;;1.80;1.52;;;;;;;6.67;72.58;97485.75;2086222;28;20652;-65
2022/04/16 01:57:18;;;;;;;3.88;2.17;;;;;;;6.68;72.95;97494.41;2085045;28;20196;-65
2022/04/16 01:58:20;;;;;;;2.33;1.63;;;;;;;6.57;73.21;97479.22;2080387;28;20193;-65
2022/04/16 01:59:21;;;;;;;3.85;1.88;;;;;;;6.62;73.27;97494.66;2079557;28;20203;-65
2022/04/16 02:00:23;;;;;;;2.80;1.75;;;;;;;6.67;72.97;97495.31;2084775;28;20196;-65
2022/04/16 02:01:24;;;;;;;2.33;1.73;;;;;;;6.70;72.91;97489.97;2084309;28;20198;-65
2022/04/16 02:02:26;;;;;;;2.13;1.70;;;;;;;6.74;72.71;97496.75;2083892;28;20334;-65
2022/04/16 02:03:29;;;;;;;3.03;1.70;;;;;;;6.75;72.57;97485.47;2083736;28;20200;-65
2022/04/16 02:04:32;;;;;;;4.25;1.70;;;;;;;6.67;72.82;97495.31;2083055;28;20232;-65
2022/04/16 02:05:34;;;;;;;3.35;2.20;;;;;;;6.58;72.94;97485.25;2086713;28;20220;-65
2022/04/16 02:06:36;;;;;;;7.28;2.20;;;;;;;6.36;73.44;97506.06;2082830;28;20200;-65
2022/04/16 02:07:38;;;;;;;2.38;1.70;;;;;;;6.49;73.02;97502.94;2084485;28;20202;-65
2022/04/16 02:08:40;;;;;;;1.80;1.60;;;;;;;6.41;73.20;97502.38;2082634;28;20192;-65
2022/04/16 02:09:41;;;;;;;3.05;2.25;;;;;;;6.42;72.86;97498.84;2084073;28;20201;-65
2022/04/16 02:10:43;;;;;;;1.90;1.50;;;;;;;6.01;73.72;97498.63;2082979;28;20220;-65
2022/04/16 02:11:44;;;;;;;2.40;1.70;;;;;;;6.08;74.02;97494.91;2085223;28;20196;-65
2022/04/16 02:12:46;;;;;;;3.92;1.63;;;;;;;6.03;74.45;97507.22;2086694;28;20204;-65
2022/04/16 02:13:47;;;;;;;4.13;1.65;;;;;;;6.00;74.60;97503.88;2086700;28;20212;-65
2022/04/16 02:14:49;;;;;;;4.90;2.00;;;;;;;6.10;74.52;97500.06;2085082;28;20203;-65
2022/04/16 02:15:51;;;;;;;3.05;1.85;;;;;;;6.13;74.09;97506.00;2082156;28;20223;-65
2022/04/16 02:16:53;;;;;;;1.73;1.58;;;;;;;6.10;73.84;97503.50;2079153;28;20197;-65
2022/04/16 02:17:56;;;;;;;2.80;1.90;;;;;;;6.01;74.02;97496.03;2079452;28;20466;-65
2022/04/16 02:18:58;;;;;;;2.40;1.80;;;;;;;5.93;74.28;97501.47;2085412;28;20200;-66
2022/04/16 02:20:00;;;;;;;2.42;1.60;;;;;;;5.92;74.38;97493.75;2086071;28;20201;-65
2022/04/16 02:21:02;;;;;;;3.63;1.83;;;;;;;5.71;75.23;97493.59;2083896;28;20212;-66
2022/04/16 02:22:05;;;;;;;2.13;1.70;;;;;;;5.80;75.31;97496.75;2087398;28;20196;-65
2022/04/16 02:23:06;;;;;;;4.15;2.20;;;;;;;5.94;74.87;97491.94;2081431;28;20266;-65
2022/04/16 02:24:08;;;;;;;3.65;2.05;;;;;;;6.04;74.52;97493.34;2081823;28;20192;-65
2022/04/16 02:25:11;;;;;;;2.70;1.90;;;;;;;6.12;74.42;97499.09;2081958;28;20196;-65
2022/04/16 02:26:12;;;;;;;3.47;2.08;;;;;;;6.09;74.19;97491.41;2083556;28;20228;-65
2022/04/16 02:27:14;;;;;;;2.10;1.70;;;;;;;6.16;74.15;97491.19;2084473;28;20196;-65
2022/04/16 02:28:16;;;;;;;4.13;2.05;;;;;;;6.10;74.17;97495.72;2084738;28;20204;-65
2022/04/16 02:29:18;;;;;;;2.80;1.85;;;;;;;6.14;74.13;97492.09;2085077;28;20196;-65
2022/04/16 02:30:20;;;;;;;2.45;1.98;;;;;;;6.13;74.36;97493.00;2083601;28;20211;-65
2022/04/16 02:31:23;;;;;;;2.97;2.00;;;;;;;6.22;73.98;97491.81;2083426;28;20201;-65
2022/04/16 02:32:25;;;;;;;7.18;1.90;;;;;;;6.22;74.06;97488.38;2084738;28;20196;-65
2022/04/16 02:33:30;;;;;;;2.17;1.75;;;;;;;6.28;73.80;97501.97;2084309;28;20322;-66
2022/04/16 02:34:31;;;;;;;2.75;1.75;;;;;;;6.22;73.75;97489.19;2084167;28;20240;-65
2022/04/16 02:35:33;;;;;;;3.00;2.15;;;;;;;6.23;73.73;97490.03;2084197;28;20227;-65
2022/04/16 02:36:34;;;;;;;3.35;2.20;;;;;;;6.19;74.02;97493.66;2085340;28;20204;-65
2022/04/16 02:37:36;;;;;;;2.25;1.75;;;;;;;6.19;74.05;97488.47;2083902;28;20208;-66
2022/04/16 02:38:40;;;;;;;2.42;1.92;;;;;;;6.27;73.88;97499.44;2083664;28;20873;-65
2022/04/16 02:39:41;;;;;;;2.75;2.13;;;;;;;6.14;74.07;97484.28;2084512;28;20196;-66
2022/04/16 02:40:43;;;;;;;1.75;1.50;;;;;;;6.26;73.95;97495.97;2083358;28;20225;-65
2022/04/16 02:41:44;;;;;;;3.75;2.28;;;;;;;6.17;73.93;97490.28;2083915;28;20201;-65
2022/04/16 02:42:46;;;;;;;1.85;1.58;;;;;;;6.21;74.11;97492.69;2078504;28;20209;-65
2022/04/16 02:43:47;;;;;;;3.85;1.90;;;;;;;6.16;74.32;97496.41;2077753;28;20197;-65
2022/04/16 02:47:30;;;;;;;2.88;1.70;;;;;;;6.11;74.39;97491.34;2078162;28;20228;-65
2022/04/16 02:48:32;;;;;;;1.77;1.48;;;;;;;5.98;74.26;97474.50;2084801;28;20691;-66
2022/04/16 02:49:40;;;;;;;2.65;1.80;;;;;;;5.89;74.22;97467.84;2083714;28;20196;-65
2022/04/16 02:50:41;;;;;;;3.40;2.05;;;;;;;6.08;74.43;97496.69;2078745;28;20232;-65
2022/04/16 02:51:43;;;;;;;2.00;1.75;;;;;;;6.06;74.50;97504.53;2079418;28;20208;-65
2022/04/16 02:52:46;;;;;;;3.30;2.13;;;;;;;6.07;74.39;97511.41;2085443;28;20204;-65
2022/04/16 02:53:47;;;;;;;2.38;1.95;;;;;;;5.98;74.54;97487.50;2084666;28;20211;-65
2022/04/16 02:54:49;;;;;;;2.40;1.83;;;;;;;6.06;74.51;97504.53;2083928;28;20231;-65
2022/04/16 02:55:50;;;;;;;2.95;2.10;;;;;;;6.05;74.71;97508.00;2083928;28;20219;-65
2022/04/16 02:56:54;;;;;;;3.30;1.90;;;;;;;5.98;74.87;97506.56;2084588;28;20197;-65
2022/04/16 02:57:56;;;;;;;2.30;1.67;;;;;;;5.94;75.07;97504.94;2086189;28;20207;-65
2022/04/16 02:58:57;;;;;;;2.80;1.65;;;;;;;5.81;75.31;97496.72;2084417;28;20199;-65
2022/04/16 02:59:59;;;;;;;2.70;1.98;;;;;;;5.91;75.21;97502.44;2084224;28;20284;-65
2022/04/16 03:01:08;;;;;;;4.95;2.25;;;;;;;5.90;75.36;97500.72;2082942;28;20926;-66
2022/04/16 03:02:11;;;;;;;3.75;2.38;;;;;;;5.87;75.38;97503.47;2078920;28;20688;-66
2022/04/16 03:03:12;;;;;;;3.45;1.73;;;;;;;5.86;75.41;97506.94;2079270;28;20373;-66
2022/04/16 03:04:14;;;;;;;2.42;1.92;;;;;;;5.82;75.46;97494.97;2083062;28;20204;-65
2022/04/16 03:05:16;;;;;;;2.40;1.75;;;;;;;5.72;75.42;97495.31;2081758;28;20205;-65
2022/04/16 03:06:18;;;;;;;5.32;2.05;;;;;;;5.82;75.67;97505.34;2082803;28;20204;-65
2022/04/16 03:07:20;;;;;;;2.33;1.67;;;;;;;5.80;75.99;97502.84;2084417;28;20197;-65
2022/04/16 03:08:24;;;;;;;4.50;1.90;;;;;;;5.83;75.80;97504.47;2082429;28;20194;-65
2022/04/16 03:09:25;;;;;;;6.10;2.80;;;;;;;5.75;76.20;97505.59;2084034;28;20196;-65
2022/04/16 03:10:27;;;;;;;2.47;1.75;;;;;;;5.84;75.93;97508.75;2083242;28;20715;-65
2022/04/16 03:11:29;;;;;;;3.47;1.80;;;;;;;5.80;75.95;97507.16;2083313;28;20200;-65
2022/04/16 03:13:00;;;;;;;3.85;1.70;;;;;;;5.77;76.17;97497.72;2083418;28;20201;-65
2022/04/16 03:17:31;;;;;;;4.05;2.10;;;;;;;5.74;76.22;97505.63;2061611;28;20861;-65
2022/04/16 03:18:05;;;;;;;2.45;2.00;;;;;;;5.54;76.46;97514.13;2085109;28;20238;-65
2022/04/16 03:19:07;;;;;;;6.40;1.90;;;;;;;5.61;76.18;97517.38;2084677;28;20641;-65
2022/04/16 03:20:09;;;;;;;2.05;1.67;;;;;;;5.59;76.15;97513.97;2083731;28;20196;-65
2022/04/16 03:21:11;;;;;;;2.90;1.90;;;;;;;5.56;76.13;97507.13;2085002;28;20639;-65
2022/04/16 03:22:13;;;;;;;3.35;2.20;;;;;;;5.58;75.98;97505.31;2082403;28;20211;-64
2022/04/16 03:23:15;;;;;;;4.72;2.58;;;;;;;5.43;76.56;97508.44;2076526;28;20201;-65
2022/04/16 03:24:16;;;;;;;2.80;1.95;;;;;;;5.36;76.57;97502.59;2077003;28;20204;-65
2022/04/16 03:25:18;;;;;;;2.50;1.88;;;;;;;5.49;76.43;97508.25;2083261;28;20200;-65
2022/04/16 03:26:19;;;;;;;3.95;1.83;;;;;;;5.53;76.00;97504.63;2084787;28;20197;-65
2022/04/16 03:27:21;;;;;;;5.43;2.10;;;;;;;5.50;76.10;97499.53;2074657;28;20197;-65
2022/04/16 03:28:22;;;;;;;2.72;1.60;;;;;;;5.52;76.26;97505.53;2077545;28;20200;-65
2022/04/16 03:29:24;;;;;;;2.88;1.60;;;;;;;5.47;76.51;97497.03;2084492;28;20201;-65
2022/04/16 03:30:25;;;;;;;2.85;1.98;;;;;;;5.40;76.62;97503.34;2084449;28;20569;-65
2022/04/16 03:31:27;;;;;;;2.60;1.83;;;;;;;5.43;76.83;97500.63;2085698;28;20201;-65
2022/04/16 03:32:29;;;;;;;2.83;1.98;;;;;;;5.42;76.85;97506.75;2083880;28;20283;-66
2022/04/16 03:33:31;;;;;;;3.28;2.53;;;;;;;5.35;77.09;97501.75;2082776;28;20199;-65
2022/04/16 03:34:33;;;;;;;3.60;2.15;;;;;;;5.35;76.77;97493.97;2078099;28;20205;-65
2022/04/16 03:35:35;;;;;;;2.70;2.10;;;;;;;5.38;76.82;97498.19;2078683;28;20227;-65
2022/04/16 03:36:37;;;;;;;3.25;2.00;;;;;;;5.33;76.69;97476.72;2085530;28;20193;-65
2022/04/16 03:37:38;;;;;;;2.25;2.03;;;;;;;5.54;76.55;97490.72;2085125;28;20312;-65
2022/04/16 03:38:40;;;;;;;2.95;2.00;;;;;;;5.45;76.72;97496.22;2084231;28;20204;-65
2022/04/16 03:39:43;;;;;;;4.15;2.28;;;;;;;5.49;76.60;97503.88;2085358;28;20602;-64
2022/04/16 03:40:48;;;;;;;3.70;2.40;;;;;;;5.40;76.63;97493.81;2076621;28;20221;-65
2022/04/16 03:41:49;;;;;;;2.40;1.70;;;;;;;5.38;76.58;97486.97;2076408;28;20200;-65
2022/04/16 03:42:59;;;;;;;3.08;1.95;;;;;;;5.41;76.88;97498.13;2076777;28;20205;-65
2022/04/16 03:44:00;;;;;;;3.85;2.10;;;;;;;5.24;76.75;97474.44;2078977;28;20197;-65
2022/04/16 03:45:02;;;;;;;3.00;2.13;;;;;;;5.43;76.63;97496.31;2084156;28;20196;-65
2022/04/16 03:46:04;;;;;;;2.30;1.80;;;;;;;5.42;76.71;97496.34;2082696;28;20221;-65
2022/04/16 03:47:05;;;;;;;2.85;2.28;;;;;;;5.34;77.10;97494.84;2083913;28;20586;-65
2022/04/16 03:48:07;;;;;;;5.53;2.63;;;;;;;5.36;76.88;97494.81;2085105;28;20196;-65
2022/04/16 03:49:09;;;;;;;3.25;2.15;;;;;;;5.17;77.02;97484.19;2084262;28;20193;-65
2022/04/16 03:50:10;;;;;;;2.88;2.08;;;;;;;5.25;76.82;97489.13;2084488;28;20200;-65
2022/04/16 03:51:12;;;;;;;4.40;2.38;;;;;;;5.04;77.84;97491.53;2083977;28;20643;-65
2022/04/16 03:52:13;;;;;;;2.90;1.83;;;;;;;5.17;77.48;97502.34;2082640;28;20196;-65
2022/04/16 03:53:15;;;;;;;3.78;2.30;;;;;;;5.14;77.63;97497.28;2082588;28;20197;-65
2022/04/16 04:00:58;;;;;;;2.85;2.13;;;;;;;5.10;77.23;97473.16;2084094;28;20221;-65
2022/04/16 04:02:00;;;;;;;3.97;1.67;;;;;;;5.23;77.34;97499.56;2083728;28;20221;-66
2022/04/16 04:03:02;;;;;;;4.32;2.13;;;;;;;5.17;77.13;97502.34;2086647;28;20197;-65
2022/04/16 04:04:04;;;;;;;3.35;2.13;;;;;;;5.19;77.13;97505.75;2079819;28;20209;-65
2022/04/16 04:05:06;;;;;;;3.65;2.35;;;;;;;5.05;77.12;97489.78;2079563;28;20193;-65
2022/04/16 04:06:08;;;;;;;5.25;2.10;;;;;;;5.11;77.35;97499.97;2064232;28;20614;-65
2022/04/16 04:07:10;;;;;;;2.65;2.30;;;;;;;4.95;77.02;97478.84;2077027;28;20200;-65
2022/04/16 04:08:12;;;;;;;4.30;2.15;;;;;;;5.15;77.22;97510.22;2084967;28;20201;-65
2022/04/16 04:09:13;;;;;;;4.22;2.00;;;;;;;5.14;77.09;97510.25;2084987;28;20248;-65
2022/04/16 04:10:14;;;;;;;3.08;1.98;;;;;;;5.15;76.79;97515.41;2086204;28;20203;-64
2022/04/16 04:11:16;;;;;;;3.10;2.05;;;;;;;5.05;77.07;97505.34;2085189;28;20207;-65
2022/04/16 04:12:17;;;;;;;3.72;2.33;;;;;;;5.03;77.23;97505.41;2086772;28;20205;-65
2022/04/16 04:13:19;;;;;;;3.95;2.28;;;;;;;4.97;77.36;97491.78;2086145;28;20211;-65
2022/04/16 04:14:21;;;;;;;2.70;1.90;;;;;;;5.02;78.00;97503.72;2086303;28;20785;-65
2022/04/16 04:15:23;;;;;;;3.47;2.20;;;;;;;5.09;77.65;97518.19;2084342;28;20209;-65
2022/04/16 04:16:25;;;;;;;3.65;2.47;;;;;;;5.03;77.46;97494.19;2084499;28;20741;-65
2022/04/16 04:17:26;;;;;;;2.85;1.77;;;;;;;5.14;77.32;97511.09;2085738;28;20714;-65
2022/04/16 04:18:28;;;;;;;3.33;2.05;;;;;;;5.06;77.57;97499.28;2084732;28;20209;-65
2022/04/16 04:19:30;;;;;;;3.40;2.08;;;;;;;5.12;77.29;97502.50;2085282;28;20204;-65
2022/04/16 04:20:32;;;;;;;5.32;2.53;;;;;;;5.06;77.62;97507.91;2079307;28;20228;-65
2022/04/16 04:21:33;;;;;;;6.70;2.10;;;;;;;5.07;77.39;97504.41;2080267;28;20209;-64
2022/04/16 04:22:35;;;;;;;2.72;2.10;;;;;;;5.11;77.39;97505.16;2085859;28;20197;-64
2022/04/16 04:23:36;;;;;;;3.38;1.95;;;;;;;5.20;77.35;97506.63;2086593;28;20200;-65
2022/04/16 04:24:39;;;;;;;5.00;2.60;;;;;;;5.06;77.44;97509.66;2086947;28;20242;-64
2022/04/16 04:25:41;;;;;;;5.05;2.15;;;;;;;5.01;78.06;97522.78;2083366;28;20217;-64
2022/04/16 04:26:42;;;;;;;3.05;1.90;;;;;;;4.97;78.15;97520.34;2080140;28;20193;-65
2022/04/16 04:27:44;;;;;;;2.60;2.17;;;;;;;4.86;78.25;97516.34;2080355;28;20682;-64
2022/04/16 04:28:45;;;;;;;2.13;1.60;;;;;;;4.90;78.23;97522.25;2076770;28;20201;-64
2022/04/16 04:29:47;;;;;;;3.75;2.30;;;;;;;5.06;77.70;97539.06;2076602;28;20212;-65
2022/04/16 04:30:49;;;;;;;3.38;2.42;;;;;;;5.14;77.75;97544.03;2085029;28;20220;-65
2022/04/16 04:31:50;;;;;;;3.70;2.85;;;;;;;5.09;78.04;97530.31;2085673;28;20203;-65
2022/04/16 04:32:56;;;;;;;4.72;2.47;;;;;;;5.26;77.42;97533.22;2086448;28;20283;-65
2022/04/16 04:33:58;;;;;;;4.28;2.75;;;;;;;4.92;78.02;97504.88;2079770;28;20198;-64
2022/04/16 04:34:59;;;;;;;4.53;2.55;;;;;;;5.14;78.30;97541.44;2071778;28;20531;-65
2022/04/16 04:36:01;;;;;;;5.22;2.65;;;;;;;5.42;77.28;97537.91;2074411;28;20217;-64
2022/04/16 04:37:03;;;;;;;3.30;2.60;;;;;;;5.53;77.03;97530.63;2085554;28;20804;-65
2022/04/16 04:38:05;;;;;;;5.57;2.42;;;;;;;5.55;77.33;97534.03;2085840;28;20203;-65
2022/04/16 04:39:06;;;;;;;8.63;2.83;;;;;;;5.57;77.30;97526.16;2085899;28;20212;-65
2022/04/16 04:40:08;;;;;;;6.43;2.67;;;;;;;5.48;77.33;97532.50;2086781;28;20192;-65
2022/04/16 04:41:10;;;;;;;5.43;2.35;;;;;;;5.49;77.22;97534.22;2079645;28;20232;-65
2022/04/16 04:42:11;;;;;;;3.70;2.30;;;;;;;5.54;77.02;97527.94;2083782;28;20197;-64
2022/04/16 04:43:13;;;;;;;4.65;2.45;;;;;;;5.62;77.11;97537.25;2082729;28;20415;-65
2022/04/16 04:44:15;;;;;;;3.40;2.40;;;;;;;5.53;76.94;97525.44;2084951;28;20533;-65
2022/04/16 04:45:17;;;;;;;3.58;2.40;;;;;;;5.50;77.10;97520.31;2086180;28;20203;-65
2022/04/16 04:46:18;;;;;;;2.70;2.40;;;;;;;5.69;77.08;97537.00;2087805;28;20613;-64
2022/04/16 04:47:21;;;;;;;3.47;2.53;;;;;;;5.75;76.73;97544.56;2086855;28;20237;-65
2022/04/16 04:48:22;;;;;;;2.28;2.00;;;;;;;5.75;76.32;97551.53;2087912;28;20197;-65
2022/04/16 04:49:24;;;;;;;2.65;2.00;;;;;;;5.72;76.20;97533.41;2088623;28;20206;-64
2022/04/16 04:50:25;;;;;;;2.67;1.83;;;;;;;5.82;76.42;97553.03;2081847;28;20657;-65
2022/04/16 04:51:27;;;;;;;3.28;1.90;;;;;;;5.80;76.73;97536.63;2081923;28;20219;-65
2022/04/16 04:52:29;;;;;;;2.03;1.50;;;;;;;5.80;76.50;97546.16;2082499;28;20846;-65
2022/04/16 04:53:31;;;;;;;3.75;2.60;;;;;;;5.75;76.38;97547.16;2087152;28;20210;-65
2022/04/16 04:54:33;;;;;;;3.10;2.03;;;;;;;5.86;76.00;97538.13;2084280;28;20204;-65
2022/04/16 04:55:34;;;;;;;4.45;2.42;;;;;;;5.64;76.17;97527.66;2082425;28;20622;-65
2022/04/16 04:56:36;;;;;;;4.10;2.35;;;;;;;5.88;75.81;97541.53;2084366;28;20204;-65
2022/04/16 04:57:38;;;;;;;3.30;2.55;;;;;;;5.79;75.71;97541.88;2085760;28;20204;-65
2022/04/16 04:58:40;;;;;;;4.10;2.33;;;;;;;5.70;75.72;97524.84;2082577;28;20202;-65
2022/04/16 04:59:43;;;;;;;3.25;2.47;;;;;;;5.80;75.96;97536.63;2087100;28;20203;-65
2022/04/16 05:00:44;;;;;;;3.08;2.40;;;;;;;5.84;76.03;97548.63;2083769;28;20220;-65
2022/04/16 05:01:45;;;;;;;6.50;2.58;;;;;;;5.83;76.22;97546.06;2085364;28;20193;-65
2022/04/16 05:02:48;;;;;;;2.75;2.05;;;;;;;5.83;75.76;97533.91;2085595;28;20209;-65
2022/04/16 05:03:50;;;;;;;3.40;1.90;;;;;;;5.82;76.13;97549.56;2085298;28;20557;-65
2022/04/16 05:04:51;;;;;;;3.80;2.78;;;;;;;5.83;76.51;97546.91;2084750;28;20699;-65
2022/04/16 05:05:53;;;;;;;3.67;2.35;;;;;;;5.83;76.60;97553.88;2083479;28;20221;-65
2022/04/16 05:06:54;;;;;;;3.40;2.28;;;;;;;5.87;76.16;97539.84;2085173;28;20205;-65
2022/04/16 05:07:56;;;;;;;4.68;2.08;;;;;;;5.88;76.37;97549.34;2076492;28;20208;-65
2022/04/16 05:08:58;;;;;;;3.13;2.60;;;;;;;5.87;76.54;97551.09;2074965;28;20202;-65